Time;durP1;ratioP1;P1;durP2;ratioP2;P2;SDS_P1;SDS_P2;PMS_P1;PMS_P2;Temp;Humidity;BMP_temperature;BMP_pressure;BME280_temperature;BME280_humidity;BME280_pressure;Samples;Min_cycle;Max_cycle;Signal;HPM_P1;HPM_P2
2023/01/27 00:00:53;;;;;;;6.90;4.68;;;;;;;-146.25;89.74;52546.63;2088360;28;35241;-70
2023/01/27 00:01:54;;;;;;;6.03;4.57;;;;;;;-146.25;89.05;52500.00;2087820;28;33408;-70
2023/01/27 00:02:56;;;;;;;5.55;4.70;;;;;;;-146.25;89.04;52500.00;2088168;28;39574;-71
2023/01/27 00:03:59;;;;;;;7.40;3.85;;;;;;;-146.25;88.76;52510.13;2088955;28;20038;-70
2023/01/27 00:05:01;;;;;;;5.82;3.90;;;;;;;-146.25;87.63;52516.22;2088010;28;39968;-70
2023/01/27 00:06:05;;;;;;;4.53;3.45;;;;;;;-146.25;87.18;52534.47;2087779;28;39567;-70
2023/01/27 00:07:06;;;;;;;5.03;3.40;;;;;;;-146.25;87.13;52502.03;2087929;28;39276;-70
2023/01/27 00:08:08;;;;;;;4.90;3.92;;;;;;;-146.25;87.40;52508.09;2087471;28;38493;-70
2023/01/27 00:09:10;;;;;;;5.75;3.80;;;;;;;-146.25;87.53;52508.09;2088206;28;35440;-70
2023/01/27 00:10:16;;;;;;;4.10;3.70;;;;;;;-146.25;88.07;52493.91;2087867;28;40374;-70
2023/01/27 00:13:59;;;;;;;5.20;3.53;;;;;;;-146.25;87.60;52489.84;2087573;28;40821;-70
2023/01/27 00:15:00;;;;;;;4.25;3.70;;;;;;;-146.25;87.79;52491.88;2088155;28;39920;-70
2023/01/27 00:16:02;;;;;;;6.05;3.30;;;;;;;-146.25;87.81;52522.28;2087952;28;36886;-70
2023/01/27 00:17:04;;;;;;;4.22;3.35;;;;;;;-146.25;88.13;52500.00;2088328;28;23061;-70
2023/01/27 00:18:06;;;;;;;5.00;3.70;;;;;;;-146.25;87.60;52510.13;2088034;28;40098;-71
2023/01/27 00:19:08;;;;;;;3.97;3.30;;;;;;;-146.25;87.97;52491.88;2087688;28;38142;-69
2023/01/27 00:20:10;;;;;;;4.97;3.45;;;;;;;-146.25;88.18;52491.88;2087725;28;39444;-70
2023/01/27 00:25:17;;;;;;;6.93;3.40;;;;;;;-146.25;88.27;52489.84;2088798;28;22010;-69
2023/01/27 00:26:19;;;;;;;6.50;3.63;;;;;;;-146.25;88.19;52514.19;2087625;28;40986;-70
2023/01/27 00:27:21;;;;;;;4.93;3.40;;;;;;;-146.25;88.40;52500.00;2083491;28;41261;-70
2023/01/27 00:28:24;;;;;;;5.10;3.72;;;;;;;-146.25;88.30;52510.13;2079967;28;26188;-69
2023/01/27 00:29:25;;;;;;;4.05;3.60;;;;;;;-146.25;88.53;52469.56;2079676;28;34316;-70
2023/01/27 00:30:27;;;;;;;4.15;3.40;;;;;;;-146.25;88.62;52489.84;2079661;28;38851;-70
2023/01/27 00:34:09;;;;;;;4.45;2.70;;;;;;;-146.25;88.26;52481.75;2087546;28;28755;-70
2023/01/27 00:35:15;;;;;;;4.28;2.83;;;;;;;-146.25;87.34;52481.75;2088449;28;20135;-70
2023/01/27 00:36:16;;;;;;;3.85;2.53;;;;;;;-146.25;87.19;52530.41;2087732;28;23025;-69
2023/01/27 00:37:19;;;;;;;3.50;2.03;;;;;;;-146.25;86.79;52506.06;2087244;28;35678;-70
2023/01/27 00:38:21;;;;;;;2.55;2.00;;;;;;;-146.25;86.89;52520.28;2087357;28;35817;-70
2023/01/27 00:39:22;;;;;;;5.07;2.45;;;;;;;-146.25;86.85;52485.81;2086283;28;35496;-69
2023/01/27 00:40:24;;;;;;;3.15;2.13;;;;;;;-146.25;86.79;52477.69;2079457;28;37917;-70
2023/01/27 00:41:27;;;;;;;3.17;2.28;;;;;;;-146.25;86.60;52491.88;2078888;28;37384;-70
2023/01/27 00:42:29;;;;;;;4.53;2.05;;;;;;;-146.25;86.18;52504.03;2079225;28;20772;-70
2023/01/27 00:43:30;;;;;;;3.80;2.08;;;;;;;-146.25;86.42;52485.81;2079356;28;26807;-70
2023/01/27 00:44:32;;;;;;;2.75;2.25;;;;;;;-146.25;86.88;52497.97;2079230;28;33829;-71
2023/01/27 00:45:50;;;;;;;3.63;2.05;;;;;;;-146.25;87.05;52473.63;2079001;28;21641;-69
2023/01/27 00:46:51;;;;;;;3.45;2.10;;;;;;;-146.25;87.09;52493.91;2079623;28;30645;-70
2023/01/27 00:47:53;;;;;;;3.80;2.35;;;;;;;-146.25;86.73;52500.00;2079855;28;30830;-70
2023/01/27 00:48:55;;;;;;;3.90;1.90;;;;;;;-146.25;86.82;52500.00;2086713;28;32877;-70
2023/01/27 00:49:57;;;;;;;3.38;2.05;;;;;;;-146.25;86.83;52524.31;2087196;28;33405;-69
2023/01/27 00:50:59;;;;;;;4.45;2.30;;;;;;;-146.25;86.99;52491.88;2079581;28;20899;-70
2023/01/27 00:52:01;;;;;;;3.65;2.10;;;;;;;-146.25;86.94;52489.84;2087746;28;20883;-70
2023/01/27 00:53:02;;;;;;;5.53;2.40;;;;;;;-146.25;86.83;52477.69;2088322;28;27363;-70
2023/01/27 00:54:05;;;;;;;3.10;2.00;;;;;;;-146.25;86.70;52510.13;2087331;28;20045;-70
2023/01/27 00:55:09;;;;;;;3.60;2.20;;;;;;;-146.25;87.29;52506.06;2087159;28;36227;-70
2023/01/27 00:56:11;;;;;;;2.92;1.90;;;;;;;-146.25;86.87;52512.16;2087577;28;44073;-69
2023/01/27 00:57:13;;;;;;;4.68;2.08;;;;;;;-146.25;87.17;52522.28;2087726;28;31026;-69
2023/01/27 00:58:15;;;;;;;3.83;1.95;;;;;;;-146.25;86.91;52510.13;2087182;28;32727;-70
2023/01/27 00:59:17;;;;;;;3.40;2.17;;;;;;;-146.25;87.03;52479.72;2088624;28;20063;-69
2023/01/27 01:00:19;;;;;;;5.30;1.77;;;;;;;-146.25;86.71;52534.47;2087672;28;35395;-69
2023/01/27 01:01:21;;;;;;;3.85;2.20;;;;;;;-146.25;86.88;52530.41;2087711;28;34474;-69
2023/01/27 01:02:22;;;;;;;4.05;1.92;;;;;;;-146.25;87.55;52536.50;2087980;28;30565;-68
2023/01/27 01:03:26;;;;;;;4.35;2.13;;;;;;;-146.25;87.62;52510.13;2087769;28;20371;-69
2023/01/27 01:04:27;;;;;;;2.97;1.92;;;;;;;-146.25;87.61;52481.75;2086310;28;33012;-69
2023/01/27 01:05:29;;;;;;;4.63;2.10;;;;;;;-146.25;88.01;52491.88;2079652;28;32652;-70
2023/01/27 01:06:31;;;;;;;2.97;1.83;;;;;;;-146.25;87.57;52477.69;2079500;28;41773;-69
2023/01/27 01:07:32;;;;;;;2.97;1.85;;;;;;;-146.25;88.05;52479.72;2080286;28;20177;-68
2023/01/27 01:08:36;;;;;;;2.60;1.70;;;;;;;-146.25;87.90;52439.16;2079153;28;20038;-69
2023/01/27 01:09:40;;;;;;;2.88;2.00;;;;;;;-146.25;88.07;52487.81;2079802;28;20050;-70
2023/01/27 01:10:45;;;;;;;4.35;2.40;;;;;;;-146.25;88.26;52471.59;2079470;28;20045;-68
2023/01/27 01:11:47;;;;;;;2.60;1.75;;;;;;;-146.25;88.22;52500.00;2078679;28;35588;-69
2023/01/27 01:12:48;;;;;;;3.22;1.95;;;;;;;-146.25;88.23;52477.69;2087300;28;20558;-69
2023/01/27 01:13:52;;;;;;;5.07;2.30;;;;;;;-146.25;88.41;52489.84;2087538;28;20142;-69
2023/01/27 01:14:56;;;;;;;2.15;1.77;;;;;;;-146.25;88.66;52510.13;2079377;28;41297;-69
2023/01/27 01:16:08;;;;;;;3.17;2.13;;;;;;;-146.25;87.67;52502.03;2080110;28;20038;-69
2023/01/27 01:17:10;;;;;;;3.42;1.90;;;;;;;-146.25;87.99;52479.72;2086973;28;40442;-69
2023/01/27 01:18:12;;;;;;;3.15;1.98;;;;;;;-146.25;88.37;52495.94;2087162;28;20107;-69
2023/01/27 01:19:14;;;;;;;4.55;2.33;;;;;;;-146.25;88.25;52485.81;2087867;28;21072;-71
2023/01/27 01:20:16;;;;;;;2.08;1.77;;;;;;;-146.25;88.63;52510.13;2086747;28;31032;-71
2023/01/27 01:21:17;;;;;;;3.13;1.90;;;;;;;-146.25;87.57;52489.84;2087755;28;28938;-71
2023/01/27 01:22:19;;;;;;;2.47;1.75;;;;;;;-146.25;87.94;52500.00;2088436;28;31547;-69
2023/01/27 01:23:21;;;;;;;2.83;1.75;;;;;;;-146.25;87.56;52475.66;2089196;28;20277;-69
2023/01/27 01:24:23;;;;;;;2.63;1.58;;;;;;;-146.25;87.81;52504.03;2088949;28;32042;-70
2023/01/27 01:25:24;;;;;;;2.65;1.98;;;;;;;-146.25;87.21;52504.03;2088850;28;20119;-69
2023/01/27 01:26:28;;;;;;;4.18;2.05;;;;;;;-146.25;87.91;52522.28;2089533;28;20219;-69
2023/01/27 01:27:29;;;;;;;1.88;1.50;;;;;;;-146.25;87.03;52508.09;2088666;28;37281;-70
2023/01/27 01:28:31;;;;;;;2.45;1.95;;;;;;;-146.25;87.19;52463.50;2089552;28;33228;-69
2023/01/27 01:29:33;;;;;;;4.50;1.88;;;;;;;-146.25;86.96;52485.81;2088158;28;31546;-70
2023/01/27 01:30:36;;;;;;;2.30;1.80;;;;;;;-146.25;86.98;52530.41;2080611;28;20045;-69
2023/01/27 01:31:39;;;;;;;3.17;1.90;;;;;;;-146.25;86.77;52500.00;2089116;28;20057;-69
2023/01/27 01:32:41;;;;;;;2.40;1.50;;;;;;;-146.25;86.96;52506.06;2089244;28;33000;-69
2023/01/27 01:33:43;;;;;;;2.25;1.85;;;;;;;-146.25;87.00;52485.81;2089418;28;30203;-69
2023/01/27 01:34:45;;;;;;;2.55;1.60;;;;;;;-146.25;86.52;52514.19;2079974;28;20148;-69
2023/01/27 01:35:47;;;;;;;2.63;1.48;;;;;;;-146.25;87.08;52493.91;2080408;28;34938;-71
2023/01/27 01:36:48;;;;;;;2.75;1.73;;;;;;;-146.25;86.67;52500.00;2089908;28;22593;-69
2023/01/27 01:37:55;;;;;;;2.10;1.35;;;;;;;-146.25;86.26;52510.13;2088042;28;30913;-70
2023/01/27 01:38:57;;;;;;;3.42;1.67;;;;;;;-146.25;86.86;52497.97;2081193;28;34017;-69
2023/01/27 01:40:01;;;;;;;1.98;1.70;;;;;;;-146.25;87.12;52508.09;2089683;28;20902;-69
2023/01/27 01:41:05;;;;;;;3.55;1.58;;;;;;;-146.25;86.96;52461.47;2097309;28;20040;-70
2023/01/27 01:42:08;;;;;;;2.63;1.73;;;;;;;-146.25;87.37;52504.03;2090222;28;21008;-69
2023/01/27 01:43:16;;;;;;;2.45;1.50;;;;;;;-146.25;86.93;52493.91;2089233;28;32217;-69
2023/01/27 01:44:26;;;;;;;3.47;1.70;;;;;;;-146.25;86.54;52489.84;2088506;28;32883;-71
2023/01/27 01:45:31;;;;;;;3.42;1.55;;;;;;;-146.25;86.55;52479.72;2088975;28;26035;-69
2023/01/27 01:46:33;;;;;;;2.92;1.20;;;;;;;-146.25;86.70;52500.00;2089681;28;20124;-70
2023/01/27 01:47:35;;;;;;;2.72;1.50;;;;;;;-146.25;86.59;52516.22;2089582;28;20103;-71
2023/01/27 01:48:47;;;;;;;2.65;1.50;;;;;;;-146.25;86.31;52485.81;2088953;28;20053;-69
2023/01/27 01:49:49;;;;;;;1.98;1.27;;;;;;;-146.25;86.91;52487.81;2080972;28;20042;-69
2023/01/27 01:51:05;;;;;;;3.00;1.38;;;;;;;-146.25;86.87;52485.81;2088604;28;33952;-69
2023/01/27 01:52:15;;;;;;;2.55;1.15;;;;;;;-146.25;86.08;52469.56;2088792;28;20176;-70
2023/01/27 01:53:26;;;;;;;2.65;1.10;;;;;;;-146.25;86.06;52520.28;2089931;28;33912;-69
2023/01/27 01:54:37;;;;;;;2.28;0.90;;;;;;;-146.25;85.66;52540.53;2080252;28;39255;-69
2023/01/27 01:55:40;;;;;;;1.98;0.95;;;;;;;-146.25;85.51;52504.03;2083177;28;34997;-69
2023/01/27 01:57:06;;;;;;;2.03;1.02;;;;;;;-146.25;85.08;52481.75;2088698;28;24460;-71
2023/01/27 01:58:11;;;;;;;1.52;0.80;;;;;;;-146.25;85.30;52500.00;2088156;28;20037;-70
2023/01/27 01:59:24;;;;;;;1.30;0.90;;;;;;;-146.25;85.13;52481.75;2089452;28;36876;-70
2023/01/27 02:00:28;;;;;;;2.35;0.75;;;;;;;-146.25;84.55;52512.16;2095104;28;20136;-71
2023/01/27 02:01:31;;;;;;;1.90;0.70;;;;;;;-146.25;84.97;52477.69;2088082;28;32615;-71
2023/01/27 02:02:34;;;;;;;1.17;0.70;;;;;;;-146.25;84.82;52479.72;2088948;28;20231;-71
2023/01/27 02:03:41;;;;;;;2.75;0.80;;;;;;;-146.25;84.97;52534.47;2089019;28;20045;-70
2023/01/27 02:04:55;;;;;;;1.42;0.85;;;;;;;-146.25;84.95;52467.56;2072159;28;22940;-70
2023/01/27 02:05:59;;;;;;;2.40;0.77;;;;;;;-146.25;85.67;52506.06;2083908;28;20081;-70
2023/01/27 02:07:10;;;;;;;1.27;0.70;;;;;;;-146.25;85.45;52489.84;2089485;28;20853;-71
2023/01/27 02:08:29;;;;;;;2.53;0.60;;;;;;;-146.25;85.80;52485.81;2089609;28;20045;-69
2023/01/27 02:09:32;;;;;;;1.33;0.55;;;;;;;-146.25;85.90;52506.06;2080477;28;20046;-69
2023/01/27 02:10:34;;;;;;;1.35;0.65;;;;;;;-146.25;86.40;52483.78;2074552;28;20045;-70
2023/01/27 02:11:38;;;;;;;2.05;0.90;;;;;;;-146.25;86.03;52481.75;2080373;28;20049;-71
2023/01/27 02:12:42;;;;;;;2.05;1.00;;;;;;;-146.25;86.82;52506.06;2088714;28;20060;-70
2023/01/27 02:13:44;;;;;;;1.80;1.25;;;;;;;-146.25;86.79;52489.84;2089112;28;34169;-70
2023/01/27 02:14:46;;;;;;;2.35;1.08;;;;;;;-146.25;86.99;52479.72;2088042;28;20038;-70
2023/01/27 02:15:52;;;;;;;3.10;1.08;;;;;;;-146.25;87.23;52526.34;2080735;28;31019;-71
2023/01/27 02:16:59;;;;;;;2.25;0.98;;;;;;;-146.25;86.99;52487.81;2085534;28;26098;-70
2023/01/27 02:18:04;;;;;;;3.35;1.42;;;;;;;-146.25;87.19;52465.53;2089231;28;31718;-70
2023/01/27 02:19:19;;;;;;;2.65;1.13;;;;;;;-146.25;87.85;52495.94;2088612;28;20037;-69
2023/01/27 02:20:36;;;;;;;2.28;1.20;;;;;;;-146.25;88.15;52465.53;2073902;28;20108;-70
2023/01/27 02:21:39;;;;;;;2.25;1.30;;;;;;;-146.25;87.91;52459.44;2075627;28;20946;-70
2023/01/27 02:23:36;;;;;;;1.80;1.10;;;;;;;-146.25;88.36;52530.41;2080415;28;27334;-70
2023/01/27 02:24:46;;;;;;;2.88;1.50;;;;;;;-146.25;88.82;52502.03;2071925;28;23601;-70
2023/01/27 02:25:56;;;;;;;3.17;1.80;;;;;;;-146.25;88.98;52473.63;2063902;28;20046;-70
2023/01/27 02:26:58;;;;;;;;;;;;;;;-146.25;88.79;52495.94;2058568;28;20389;-71
2023/01/27 02:28:04;;;;;;;2.03;1.52;;;;;;;-146.25;89.05;52504.03;2063808;28;19926;-70
2023/01/27 02:29:13;;;;;;;4.90;2.08;;;;;;;-146.25;89.17;52520.28;2070998;28;38864;-70
2023/01/27 02:30:15;;;;;;;2.92;1.40;;;;;;;-146.25;89.22;52481.75;2073498;28;20926;-70
2023/01/27 02:31:17;;;;;;;4.43;1.50;;;;;;;-146.25;89.73;52469.56;2081595;28;20140;-70
2023/01/27 02:32:25;;;;;;;2.75;1.60;;;;;;;-146.25;89.61;52528.38;2080579;28;20946;-69
2023/01/27 02:33:29;;;;;;;2.60;1.75;;;;;;;-146.25;89.89;52510.13;2071912;28;20925;-70
2023/01/27 02:34:36;;;;;;;3.05;1.73;;;;;;;-146.25;90.00;52493.91;2072808;28;20170;-70
2023/01/27 02:36:05;;;;;;;3.42;1.60;;;;;;;-146.25;89.81;52510.13;2080477;28;20058;-70
2023/01/27 02:37:09;;;;;;;3.85;1.92;;;;;;;-146.25;90.12;52473.63;2084194;28;20045;-71
2023/01/27 02:38:14;;;;;;;2.50;1.63;;;;;;;-146.25;90.00;52522.28;2078503;28;20037;-71
2023/01/27 02:39:22;;;;;;;2.78;1.65;;;;;;;-146.25;90.33;52445.25;2080126;28;30270;-70
2023/01/27 02:40:26;;;;;;;3.28;1.88;;;;;;;-146.25;90.52;52493.91;2080184;28;20049;-71
2023/01/27 02:41:43;;;;;;;2.67;1.60;;;;;;;-146.25;90.73;52522.28;2080452;28;21794;-70
2023/01/27 02:42:48;;;;;;;4.93;1.67;;;;;;;-146.25;90.64;52489.84;2079985;28;20042;-70
2023/01/27 02:43:51;;;;;;;2.25;1.50;;;;;;;-146.25;91.20;52502.03;2072541;28;20220;-70
2023/01/27 02:44:53;;;;;;;4.25;1.98;;;;;;;-146.25;90.90;52483.78;2072275;28;20042;-71
2023/01/27 02:45:55;;;;;;;3.63;1.92;;;;;;;-146.25;91.07;52516.22;2079718;28;39274;-70
2023/01/27 02:46:58;;;;;;;1.65;1.52;;;;;;;-146.25;91.22;52497.97;2088669;28;20677;-71
2023/01/27 02:48:00;;;;;;;2.05;1.60;;;;;;;-146.25;90.87;52520.28;2080298;28;20081;-70
2023/01/27 02:49:02;;;;;;;2.85;1.48;;;;;;;-146.25;91.16;52491.88;2079357;28;20160;-70
2023/01/27 02:50:08;;;;;;;2.25;1.70;;;;;;;-146.25;91.27;52497.97;2080300;28;20174;-70
2023/01/27 02:51:10;;;;;;;2.67;1.58;;;;;;;-146.25;90.95;52471.59;2080505;28;20050;-70
2023/01/27 02:52:16;;;;;;;2.33;1.50;;;;;;;-146.25;91.36;52508.09;2080845;28;20157;-70
2023/01/27 02:53:17;;;;;;;2.22;1.70;;;;;;;-146.25;91.38;52522.28;2088245;28;28353;-70
2023/01/27 02:54:20;;;;;;;2.22;1.50;;;;;;;-146.25;91.28;52461.47;2088667;28;20776;-70
2023/01/27 02:55:22;;;;;;;3.55;1.58;;;;;;;-146.25;90.87;52491.88;2089166;28;25804;-70
2023/01/27 02:56:25;;;;;;;3.50;1.20;;;;;;;-146.25;91.00;52465.53;2088255;28;20034;-71
2023/01/27 02:57:30;;;;;;;2.70;1.20;;;;;;;-146.25;90.82;52489.84;2080653;28;20184;-70
2023/01/27 02:58:51;;;;;;;2.00;1.33;;;;;;;-146.25;90.82;52493.91;2088598;28;20890;-70
2023/01/27 03:00:01;;;;;;;;;;;;;;;-146.25;90.51;52481.75;2089144;28;20041;-70
2023/01/27 03:01:03;;;;;;;2.38;1.08;;;;;;;-146.25;90.51;52514.19;2087278;28;30655;-70
2023/01/27 03:02:07;;;;;;;2.97;1.15;;;;;;;-146.25;90.83;52502.03;2088402;28;20049;-70
2023/01/27 03:03:09;;;;;;;4.35;1.70;;;;;;;-146.25;90.63;52530.41;2079745;28;25822;-70
2023/01/27 03:04:11;;;;;;;2.05;0.95;;;;;;;-146.25;90.43;52477.69;2079911;28;20044;-70
2023/01/27 03:05:14;;;;;;;1.27;0.90;;;;;;;-146.25;90.39;52524.31;2088464;28;20049;-70
2023/01/27 03:06:18;;;;;;;3.05;0.90;;;;;;;-146.25;90.78;52502.03;2088535;28;21893;-70
2023/01/27 03:07:20;;;;;;;1.40;0.70;;;;;;;-146.25;90.32;52500.00;2088371;28;20070;-70
2023/01/27 03:08:21;;;;;;;2.72;1.00;;;;;;;-146.25;90.32;52510.13;2080335;28;20049;-70
2023/01/27 03:09:24;;;;;;;2.00;1.00;;;;;;;-146.25;90.63;52524.31;2078944;28;37787;-70
2023/01/27 03:10:25;;;;;;;1.80;0.90;;;;;;;-146.25;90.65;52524.31;2088055;28;20046;-70
2023/01/27 03:12:47;;;;;;;3.50;1.08;;;;;;;-146.25;90.76;52483.78;2082602;28;20156;-70
2023/01/27 03:13:49;;;;;;;2.88;0.82;;;;;;;-146.25;91.06;52512.16;2079611;28;29974;-70
2023/01/27 03:19:01;;;;;;;2.30;1.10;;;;;;;-146.25;92.07;52489.84;2088050;28;20167;-70
2023/01/27 03:20:03;;;;;;;2.33;1.20;;;;;;;-146.25;92.51;52514.19;2083635;28;20172;-70
2023/01/27 03:21:06;;;;;;;2.70;0.90;;;;;;;-146.25;92.59;52518.25;2080258;28;20034;-69
2023/01/27 03:22:08;;;;;;;3.30;1.20;;;;;;;-146.25;92.60;52522.28;2087777;28;20041;-69
2023/01/27 03:23:12;;;;;;;4.53;1.10;;;;;;;-146.25;93.11;52512.16;2087931;28;20042;-71
2023/01/27 03:24:13;;;;;;;2.63;1.30;;;;;;;-146.25;93.08;52510.13;2072274;28;20071;-70
2023/01/27 03:25:15;;;;;;;3.05;1.20;;;;;;;-146.25;93.18;52508.09;2080389;28;20831;-69
2023/01/27 03:26:17;;;;;;;2.17;1.10;;;;;;;-146.25;93.62;52542.56;2088430;28;20870;-70
2023/01/27 03:27:23;;;;;;;4.35;1.30;;;;;;;-146.25;93.83;52520.28;2080592;28;20034;-69
2023/01/27 03:30:20;;;;;;;2.72;1.40;;;;;;;-146.25;93.98;52522.28;2088139;28;20038;-70
2023/01/27 03:31:32;;;;;;;4.18;1.30;;;;;;;-146.25;94.19;52508.09;2081719;28;20089;-70
2023/01/27 03:32:36;;;;;;;1.88;1.30;;;;;;;-146.25;94.38;52485.81;2079953;28;20886;-69
2023/01/27 03:34:01;;;;;;;1.70;1.08;;;;;;;-146.25;94.62;52497.97;2058119;28;20055;-70
2023/01/27 03:35:33;;;;;;;2.70;1.30;;;;;;;-146.25;94.74;52475.66;2095145;28;20041;-70
2023/01/27 03:46:18;;;;;;;3.03;1.20;;;;;;;-146.25;95.61;52514.19;2093722;28;36440;-70
2023/01/27 03:47:20;;;;;;;2.08;1.10;;;;;;;-146.25;95.87;52508.09;2088909;28;25387;-70
2023/01/27 03:48:22;;;;;;;2.20;1.30;;;;;;;-146.25;96.05;52504.03;2088191;28;42289;-70
2023/01/27 03:49:24;;;;;;;2.25;1.17;;;;;;;-146.25;95.89;52510.13;2088269;28;20053;-69
2023/01/27 03:50:36;;;;;;;3.20;1.30;;;;;;;-146.25;95.87;52516.22;2086778;28;41606;-70
2023/01/27 03:51:40;;;;;;;4.55;1.50;;;;;;;-146.25;96.04;52497.97;2087983;28;32314;-69
2023/01/27 03:53:01;;;;;;;3.53;1.40;;;;;;;-146.25;96.02;52510.13;2087757;28;35639;-69
2023/01/27 03:54:03;;;;;;;6.07;1.20;;;;;;;-146.25;96.03;52542.56;2087580;28;44916;-69
2023/01/27 03:55:08;;;;;;;4.05;1.60;;;;;;;-146.25;96.12;52495.94;2088132;28;27934;-70
2023/01/27 03:56:10;;;;;;;1.60;1.10;;;;;;;-146.25;95.98;52526.34;2087919;28;42444;-71
2023/01/27 03:57:12;;;;;;;2.45;1.30;;;;;;;-146.25;96.15;52483.78;2088248;28;39910;-71
2023/01/27 03:58:21;;;;;;;4.05;1.40;;;;;;;-146.25;96.26;52510.13;2088349;28;36331;-70
2023/01/27 03:59:23;;;;;;;3.63;1.23;;;;;;;-146.25;96.30;52451.31;2087936;28;39094;-69
2023/01/27 04:00:25;;;;;;;3.38;1.20;;;;;;;-146.25;96.40;52520.28;2088780;28;20793;-70
2023/01/27 04:01:27;;;;;;;3.92;1.20;;;;;;;-146.25;96.32;52495.94;2088023;28;41335;-69
2023/01/27 04:08:00;;;;;;;2.42;1.17;;;;;;;-146.25;97.16;52524.31;2087845;28;38901;-69
2023/01/27 04:09:04;;;;;;;1.50;1.00;;;;;;;-146.25;96.88;52493.91;2089356;28;20127;-70
2023/01/27 04:10:07;;;;;;;2.40;1.17;;;;;;;-146.25;96.89;52504.03;2087156;28;29718;-71
2023/01/27 04:12:32;;;;;;;5.47;1.48;;;;;;;-146.25;96.97;52534.47;2088432;28;33960;-68
2023/01/27 04:13:33;;;;;;;2.08;1.38;;;;;;;-146.25;96.99;52536.50;2087904;28;39426;-70
2023/01/27 04:14:38;;;;;;;2.05;0.90;;;;;;;-146.25;97.40;52502.03;2087933;28;22077;-69
2023/01/27 04:15:39;;;;;;;1.42;1.00;;;;;;;-146.25;97.12;52504.03;2088076;28;33194;-68
2023/01/27 04:16:42;;;;;;;2.13;1.30;;;;;;;-146.25;97.23;52520.28;2088072;28;38278;-68
2023/01/27 04:17:43;;;;;;;3.70;1.20;;;;;;;-146.25;97.34;52516.22;2088774;28;20151;-70
2023/01/27 04:18:45;;;;;;;2.25;1.30;;;;;;;-146.25;97.33;52500.00;2087596;28;39042;-68
2023/01/27 04:19:50;;;;;;;3.28;1.40;;;;;;;-146.25;97.79;52510.13;2087269;28;40343;-71
2023/01/27 04:20:51;;;;;;;2.60;1.30;;;;;;;-146.25;97.53;52491.88;2087469;28;36988;-70
2023/01/27 04:21:54;;;;;;;3.08;1.58;;;;;;;-146.25;97.85;52489.84;2087894;28;42932;-69
2023/01/27 04:22:56;;;;;;;5.40;1.73;;;;;;;-146.25;97.99;52475.66;2088532;28;20895;-70
2023/01/27 04:23:58;;;;;;;3.88;1.77;;;;;;;-146.25;97.71;52475.66;2088075;28;35443;-71
2023/01/27 04:25:01;;;;;;;5.88;1.58;;;;;;;-146.25;97.89;52510.13;2088071;28;38232;-70
2023/01/27 04:26:03;;;;;;;4.20;1.52;;;;;;;-146.25;98.15;52497.97;2088417;28;21705;-69
2023/01/27 04:27:17;;;;;;;2.28;1.50;;;;;;;-146.25;97.89;52497.97;2087892;28;35211;-69
2023/01/27 04:28:19;;;;;;;4.10;1.70;;;;;;;-146.25;97.94;52485.81;2088717;28;20083;-69
2023/01/27 04:29:41;;;;;;;4.78;1.63;;;;;;;-146.25;98.07;52514.19;2088233;28;20055;-68
2023/01/27 04:30:43;;;;;;;3.60;1.95;;;;;;;-146.25;98.04;52500.00;2088043;28;28415;-69
2023/01/27 04:31:45;;;;;;;4.60;1.83;;;;;;;-146.25;97.90;52524.31;2088369;28;30055;-68
2023/01/27 04:32:47;;;;;;;3.47;1.70;;;;;;;-146.25;98.06;52495.94;2088362;28;20072;-69
2023/01/27 04:33:49;;;;;;;3.13;2.08;;;;;;;-146.25;98.15;52524.31;2088519;28;20049;-69
2023/01/27 04:34:52;;;;;;;6.55;2.08;;;;;;;-146.25;98.00;52510.13;2087820;28;26516;-69
2023/01/27 04:35:57;;;;;;;3.33;2.03;;;;;;;-146.25;97.97;52504.03;2087145;28;40042;-70
2023/01/27 04:36:59;;;;;;;4.43;2.00;;;;;;;-146.25;98.40;52465.53;2087948;28;20919;-70
2023/01/27 04:38:02;;;;;;;3.63;1.95;;;;;;;-146.25;98.47;52510.13;2079375;28;37169;-68
2023/01/27 04:39:06;;;;;;;3.38;1.88;;;;;;;-146.25;98.50;52546.63;2087448;28;36772;-69
2023/01/27 04:40:09;;;;;;;4.00;2.15;;;;;;;-146.25;98.68;52502.03;2088575;28;20038;-68
2023/01/27 04:41:11;;;;;;;5.90;2.30;;;;;;;-146.25;98.70;52495.94;2086955;28;41974;-68
2023/01/27 04:42:13;;;;;;;3.00;2.20;;;;;;;-146.25;98.70;52516.22;2087570;28;33461;-69
2023/01/27 04:43:17;;;;;;;2.97;2.28;;;;;;;-146.25;99.03;52497.97;2087644;28;37131;-68
2023/01/27 04:44:21;;;;;;;5.85;2.45;;;;;;;-146.25;98.89;52479.72;2088303;28;20045;-69
2023/01/27 04:45:23;;;;;;;4.88;2.05;;;;;;;-146.25;98.78;52487.81;2088495;28;20041;-69
2023/01/27 04:46:25;;;;;;;4.53;2.55;;;;;;;-146.25;98.96;52532.44;2087678;28;41369;-68
2023/01/27 04:47:26;;;;;;;5.93;2.42;;;;;;;-146.25;99.22;52467.56;2088492;28;20176;-69
2023/01/27 04:48:28;;;;;;;3.92;2.50;;;;;;;-146.25;99.06;52542.56;2087797;28;37066;-68
2023/01/27 04:49:30;;;;;;;4.88;2.33;;;;;;;-146.25;98.93;52483.78;2087237;28;39734;-69
2023/01/27 04:50:32;;;;;;;3.47;2.20;;;;;;;-146.25;98.58;52510.13;2087412;28;38759;-68
2023/01/27 04:51:34;;;;;;;3.03;2.33;;;;;;;-146.25;98.40;52534.47;2087113;28;37229;-70
2023/01/27 04:52:36;;;;;;;3.28;2.92;;;;;;;-146.25;98.48;52530.41;2087045;28;35898;-68
2023/01/27 04:53:37;;;;;;;3.78;2.35;;;;;;;-146.25;98.63;52520.28;2088959;28;20045;-68
2023/01/27 04:54:39;;;;;;;6.50;2.60;;;;;;;-146.25;98.19;52495.94;2088505;28;39987;-69
2023/01/27 04:55:46;;;;;;;3.05;2.75;;;;;;;-146.25;98.42;52485.81;2087707;28;35652;-68
2023/01/27 04:57:02;;;;;;;5.13;3.00;;;;;;;-146.25;98.56;52520.28;2086834;28;37501;-69
2023/01/27 04:58:04;;;;;;;3.78;2.70;;;;;;;-146.25;98.43;52500.00;2088064;28;33192;-69
2023/01/27 04:59:10;;;;;;;3.15;2.90;;;;;;;-146.25;98.20;52502.03;2088165;28;20034;-68
2023/01/27 05:00:13;;;;;;;6.75;3.17;;;;;;;-146.25;98.43;52441.19;2087561;28;37232;-68
2023/01/27 05:01:17;;;;;;;4.68;2.80;;;;;;;-146.25;98.04;52493.91;2087208;28;29548;-69
2023/01/27 05:02:19;;;;;;;6.30;3.55;;;;;;;-146.25;98.10;52510.13;2087365;28;20049;-69
2023/01/27 05:03:20;;;;;;;4.03;2.90;;;;;;;-146.25;98.06;52528.38;2087637;28;37774;-69
2023/01/27 05:04:24;;;;;;;4.38;3.38;;;;;;;-146.25;98.02;52542.56;2088003;28;35865;-69
2023/01/27 05:05:26;;;;;;;4.95;3.40;;;;;;;-146.25;97.83;52528.38;2087820;28;36679;-68
2023/01/27 05:06:28;;;;;;;4.00;3.22;;;;;;;-146.25;98.01;52477.69;2087854;28;41153;-69
2023/01/27 05:07:32;;;;;;;5.13;3.70;;;;;;;-146.25;97.97;52518.25;2088546;28;20077;-69
2023/01/27 05:08:34;;;;;;;5.45;3.28;;;;;;;-146.25;98.12;52520.28;2087759;28;36240;-70
2023/01/27 05:09:36;;;;;;;6.82;3.55;;;;;;;-146.25;97.88;52469.56;2087369;28;40311;-69
2023/01/27 05:10:37;;;;;;;4.97;3.92;;;;;;;-146.25;98.14;52526.34;2088448;28;20443;-68
2023/01/27 05:11:39;;;;;;;5.60;3.90;;;;;;;-146.25;97.91;52491.88;2086974;28;40409;-68
2023/01/27 05:12:41;;;;;;;4.70;3.70;;;;;;;-146.25;98.05;52532.44;2086797;28;40802;-70
2023/01/27 05:13:43;;;;;;;5.28;4.20;;;;;;;-146.25;97.76;52508.09;2088578;28;20049;-68
2023/01/27 05:14:44;;;;;;;4.82;3.50;;;;;;;-146.25;97.81;52516.22;2085971;28;41579;-68
2023/01/27 05:15:46;;;;;;;4.95;3.30;;;;;;;-146.25;97.88;52544.59;2086705;28;39495;-70
2023/01/27 05:16:48;;;;;;;5.95;4.15;;;;;;;-146.25;97.90;52479.72;2088371;28;36068;-70
2023/01/27 05:17:50;;;;;;;4.25;3.85;;;;;;;-146.25;97.90;52489.84;2087734;28;39094;-70
2023/01/27 05:18:52;;;;;;;5.95;3.55;;;;;;;-146.25;97.79;52506.06;2087015;28;40273;-68
2023/01/27 05:19:54;;;;;;;4.93;3.97;;;;;;;-146.25;98.06;52540.53;2086990;28;38909;-70
2023/01/27 05:21:00;;;;;;;5.68;3.58;;;;;;;-146.25;97.57;52522.28;2086528;28;40594;-70
2023/01/27 05:22:01;;;;;;;4.15;3.42;;;;;;;-146.25;97.69;52542.56;2088411;28;20899;-70
2023/01/27 05:24:24;;;;;;;4.32;3.92;;;;;;;-146.25;97.46;52550.69;2087481;28;39440;-70
2023/01/27 05:25:25;;;;;;;6.78;3.70;;;;;;;-146.25;97.70;52485.81;2087634;28;39858;-70
2023/01/27 05:26:29;;;;;;;4.60;4.10;;;;;;;-146.25;97.79;52530.41;2087763;28;40572;-70
2023/01/27 05:27:31;;;;;;;4.15;3.72;;;;;;;-146.25;97.53;52534.47;2087372;28;36038;-70
2023/01/27 05:28:34;;;;;;;5.88;3.97;;;;;;;-146.25;98.12;52520.28;2087611;28;39938;-69
2023/01/27 05:29:36;;;;;;;4.93;4.43;;;;;;;-146.25;98.09;52518.25;2087316;28;41293;-71
2023/01/27 05:30:42;;;;;;;4.82;4.05;;;;;;;-146.25;97.91;52530.41;2087001;28;37327;-69